sensor_id;sensor_type;location;lat;lon;timestamp;P1;durP1;ratioP1;P2;durP2;ratioP2
19814;SDS011;10067;53.092;8.800;2024-03-02T00:00:24;33.97;;;20.17;;
19814;SDS011;10067;53.092;8.800;2024-03-02T00:02:53;30.53;;;20.20;;
19814;SDS011;10067;53.092;8.800;2024-03-02T00:05:20;31.47;;;20.23;;
19814;SDS011;10067;53.092;8.800;2024-03-02T00:07:47;29.05;;;20.02;;
19814;SDS011;10067;53.092;8.800;2024-03-02T00:10:19;31.40;;;20.80;;
19814;SDS011;10067;53.092;8.800;2024-03-02T00:12:46;27.20;;;19.57;;
19814;SDS011;10067;53.092;8.800;2024-03-02T00:15:20;29.10;;;18.90;;
19814;SDS011;10067;53.092;8.800;2024-03-02T00:17:53;28.40;;;19.77;;
19814;SDS011;10067;53.092;8.800;2024-03-02T00:20:21;26.73;;;19.38;;
19814;SDS011;10067;53.092;8.800;2024-03-02T00:22:47;27.83;;;19.48;;
19814;SDS011;10067;53.092;8.800;2024-03-02T00:25:14;26.92;;;18.95;;
19814;SDS011;10067;53.092;8.800;2024-03-02T00:27:40;26.42;;;19.33;;
19814;SDS011;10067;53.092;8.800;2024-03-02T00:30:08;27.33;;;19.23;;
19814;SDS011;10067;53.092;8.800;2024-03-02T00:32:44;28.90;;;18.63;;
19814;SDS011;10067;53.092;8.800;2024-03-02T00:35:12;28.70;;;19.00;;
19814;SDS011;10067;53.092;8.800;2024-03-02T00:37:39;27.02;;;19.15;;
19814;SDS011;10067;53.092;8.800;2024-03-02T00:40:05;29.90;;;19.13;;
19814;SDS011;10067;53.092;8.800;2024-03-02T00:42:33;28.07;;;19.83;;
19814;SDS011;10067;53.092;8.800;2024-03-02T00:44:59;26.83;;;19.37;;
19814;SDS011;10067;53.092;8.800;2024-03-02T00:47:25;27.38;;;18.83;;
19814;SDS011;10067;53.092;8.800;2024-03-02T00:49:52;25.37;;;18.80;;
19814;SDS011;10067;53.092;8.800;2024-03-02T00:52:20;26.45;;;19.35;;
19814;SDS011;10067;53.092;8.800;2024-03-02T00:54:46;27.67;;;18.90;;
19814;SDS011;10067;53.092;8.800;2024-03-02T00:57:16;27.60;;;19.03;;
19814;SDS011;10067;53.092;8.800;2024-03-02T00:59:42;28.48;;;18.58;;
19814;SDS011;10067;53.092;8.800;2024-03-02T01:02:11;26.55;;;18.40;;
19814;SDS011;10067;53.092;8.800;2024-03-02T01:04:37;27.33;;;18.88;;
19814;SDS011;10067;53.092;8.800;2024-03-02T01:07:04;23.40;;;16.48;;
19814;SDS011;10067;53.092;8.800;2024-03-02T01:09:32;24.13;;;18.03;;
19814;SDS011;10067;53.092;8.800;2024-03-02T01:11:58;26.15;;;17.85;;
19814;SDS011;10067;53.092;8.800;2024-03-02T01:14:24;26.25;;;17.73;;
19814;SDS011;10067;53.092;8.800;2024-03-02T01:16:51;23.35;;;17.00;;
19814;SDS011;10067;53.092;8.800;2024-03-02T01:19:17;23.88;;;17.77;;
19814;SDS011;10067;53.092;8.800;2024-03-02T01:21:44;26.83;;;17.90;;
19814;SDS011;10067;53.092;8.800;2024-03-02T01:24:10;23.60;;;17.48;;
19814;SDS011;10067;53.092;8.800;2024-03-02T01:26:39;29.25;;;17.70;;
19814;SDS011;10067;53.092;8.800;2024-03-02T01:29:06;28.40;;;18.67;;
19814;SDS011;10067;53.092;8.800;2024-03-02T01:31:32;23.23;;;17.37;;
19814;SDS011;10067;53.092;8.800;2024-03-02T01:33:58;23.93;;;17.90;;
19814;SDS011;10067;53.092;8.800;2024-03-02T01:36:25;23.57;;;17.33;;
19814;SDS011;10067;53.092;8.800;2024-03-02T01:38:51;26.60;;;17.13;;
19814;SDS011;10067;53.092;8.800;2024-03-02T01:41:17;23.40;;;17.00;;
19814;SDS011;10067;53.092;8.800;2024-03-02T01:43:45;24.03;;;16.67;;
19814;SDS011;10067;53.092;8.800;2024-03-02T01:46:12;23.20;;;17.13;;
19814;SDS011;10067;53.092;8.800;2024-03-02T01:48:38;22.20;;;16.13;;
19814;SDS011;10067;53.092;8.800;2024-03-02T01:51:04;21.90;;;16.80;;
19814;SDS011;10067;53.092;8.800;2024-03-02T01:53:31;21.47;;;15.87;;
19814;SDS011;10067;53.092;8.800;2024-03-02T01:55:58;26.05;;;15.80;;
19814;SDS011;10067;53.092;8.800;2024-03-02T01:58:24;22.97;;;16.07;;
19814;SDS011;10067;53.092;8.800;2024-03-02T02:00:52;21.23;;;16.13;;
19814;SDS011;10067;53.092;8.800;2024-03-02T02:03:18;24.87;;;16.83;;
19814;SDS011;10067;53.092;8.800;2024-03-02T02:05:44;25.53;;;16.80;;
19814;SDS011;10067;53.092;8.800;2024-03-02T02:08:13;23.07;;;16.40;;
19814;SDS011;10067;53.092;8.800;2024-03-02T02:10:39;23.80;;;16.55;;
19814;SDS011;10067;53.092;8.800;2024-03-02T02:13:05;25.57;;;16.93;;
19814;SDS011;10067;53.092;8.800;2024-03-02T02:15:33;22.60;;;16.30;;
19814;SDS011;10067;53.092;8.800;2024-03-02T02:18:02;24.10;;;17.23;;
19814;SDS011;10067;53.092;8.800;2024-03-02T02:20:29;23.53;;;16.90;;
19814;SDS011;10067;53.092;8.800;2024-03-02T02:22:57;21.33;;;15.33;;
19814;SDS011;10067;53.092;8.800;2024-03-02T02:25:24;22.40;;;16.43;;
19814;SDS011;10067;53.092;8.800;2024-03-02T02:27:50;20.13;;;15.37;;
19814;SDS011;10067;53.092;8.800;2024-03-02T02:30:20;21.33;;;15.57;;
19814;SDS011;10067;53.092;8.800;2024-03-02T02:32:47;23.90;;;15.87;;
19814;SDS011;10067;53.092;8.800;2024-03-02T02:35:13;23.40;;;16.67;;
19814;SDS011;10067;53.092;8.800;2024-03-02T02:37:39;23.50;;;16.43;;
19814;SDS011;10067;53.092;8.800;2024-03-02T02:40:08;21.73;;;16.30;;
19814;SDS011;10067;53.092;8.800;2024-03-02T02:42:34;21.50;;;16.50;;
19814;SDS011;10067;53.092;8.800;2024-03-02T02:45:01;23.53;;;17.00;;
19814;SDS011;10067;53.092;8.800;2024-03-02T02:47:27;24.03;;;16.27;;
19814;SDS011;10067;53.092;8.800;2024-03-02T02:49:55;24.20;;;16.93;;
19814;SDS011;10067;53.092;8.800;2024-03-02T02:52:21;28.20;;;19.27;;
19814;SDS011;10067;53.092;8.800;2024-03-02T02:54:47;26.33;;;18.80;;
19814;SDS011;10067;53.092;8.800;2024-03-02T02:57:15;26.43;;;18.63;;
19814;SDS011;10067;53.092;8.800;2024-03-02T02:59:41;24.80;;;17.70;;
19814;SDS011;10067;53.092;8.800;2024-03-02T03:02:08;28.50;;;19.57;;
19814;SDS011;10067;53.092;8.800;2024-03-02T03:04:34;26.02;;;18.73;;
19814;SDS011;10067;53.092;8.800;2024-03-02T03:07:00;30.50;;;20.57;;
19814;SDS011;10067;53.092;8.800;2024-03-02T03:09:27;29.00;;;20.43;;
19814;SDS011;10067;53.092;8.800;2024-03-02T03:11:54;28.07;;;19.73;;
19814;SDS011;10067;53.092;8.800;2024-03-02T03:14:21;29.63;;;20.97;;
19814;SDS011;10067;53.092;8.800;2024-03-02T03:16:48;27.87;;;20.40;;
19814;SDS011;10067;53.092;8.800;2024-03-02T03:19:15;26.77;;;19.90;;
19814;SDS011;10067;53.092;8.800;2024-03-02T03:21:43;32.47;;;21.50;;
19814;SDS011;10067;53.092;8.800;2024-03-02T03:24:09;29.80;;;21.17;;
19814;SDS011;10067;53.092;8.800;2024-03-02T03:26:35;31.73;;;21.30;;
19814;SDS011;10067;53.092;8.800;2024-03-02T03:29:02;29.50;;;21.00;;
19814;SDS011;10067;53.092;8.800;2024-03-02T03:31:30;29.40;;;20.58;;
19814;SDS011;10067;53.092;8.800;2024-03-02T03:33:56;30.20;;;21.50;;
19814;SDS011;10067;53.092;8.800;2024-03-02T03:36:23;29.67;;;21.07;;
19814;SDS011;10067;53.092;8.800;2024-03-02T03:38:50;28.50;;;20.53;;
19814;SDS011;10067;53.092;8.800;2024-03-02T03:41:16;31.70;;;21.90;;
19814;SDS011;10067;53.092;8.800;2024-03-02T03:43:42;28.13;;;20.23;;
19814;SDS011;10067;53.092;8.800;2024-03-02T03:46:09;27.93;;;20.20;;
19814;SDS011;10067;53.092;8.800;2024-03-02T03:48:36;29.23;;;20.53;;
19814;SDS011;10067;53.092;8.800;2024-03-02T03:51:03;28.13;;;21.10;;
19814;SDS011;10067;53.092;8.800;2024-03-02T03:53:29;29.37;;;20.17;;
19814;SDS011;10067;53.092;8.800;2024-03-02T03:55:56;28.75;;;21.08;;
19814;SDS011;10067;53.092;8.800;2024-03-02T03:58:22;33.73;;;20.50;;
19814;SDS011;10067;53.092;8.800;2024-03-02T04:00:49;31.17;;;20.73;;
19814;SDS011;10067;53.092;8.800;2024-03-02T04:03:15;30.63;;;20.93;;
19814;SDS011;10067;53.092;8.800;2024-03-02T04:05:43;26.88;;;19.30;;
19814;SDS011;10067;53.092;8.800;2024-03-02T04:08:10;25.70;;;19.17;;
19814;SDS011;10067;53.092;8.800;2024-03-02T04:10:36;29.93;;;19.07;;
19814;SDS011;10067;53.092;8.800;2024-03-02T04:13:03;25.57;;;18.97;;
19814;SDS011;10067;53.092;8.800;2024-03-02T04:15:34;26.87;;;19.37;;
19814;SDS011;10067;53.092;8.800;2024-03-02T04:18:00;25.67;;;18.87;;
19814;SDS011;10067;53.092;8.800;2024-03-02T04:20:26;24.33;;;18.27;;
19814;SDS011;10067;53.092;8.800;2024-03-02T04:22:54;25.43;;;18.40;;
19814;SDS011;10067;53.092;8.800;2024-03-02T04:25:20;25.37;;;18.73;;
19814;SDS011;10067;53.092;8.800;2024-03-02T04:27:46;26.67;;;18.50;;
19814;SDS011;10067;53.092;8.800;2024-03-02T04:30:13;26.60;;;18.40;;
19814;SDS011;10067;53.092;8.800;2024-03-02T04:32:40;24.97;;;18.40;;
19814;SDS011;10067;53.092;8.800;2024-03-02T04:35:07;27.33;;;18.13;;
19814;SDS011;10067;53.092;8.800;2024-03-02T04:37:35;24.20;;;18.33;;
19814;SDS011;10067;53.092;8.800;2024-03-02T04:40:03;25.27;;;17.97;;
19814;SDS011;10067;53.092;8.800;2024-03-02T04:42:33;24.50;;;18.60;;
19814;SDS011;10067;53.092;8.800;2024-03-02T04:44:59;24.13;;;18.10;;
19814;SDS011;10067;53.092;8.800;2024-03-02T04:47:25;23.53;;;17.77;;
19814;SDS011;10067;53.092;8.800;2024-03-02T04:49:52;24.83;;;16.70;;
19814;SDS011;10067;53.092;8.800;2024-03-02T04:52:18;21.93;;;17.27;;
19814;SDS011;10067;53.092;8.800;2024-03-02T04:54:44;24.57;;;17.03;;
19814;SDS011;10067;53.092;8.800;2024-03-02T04:57:26;23.03;;;16.97;;
19814;SDS011;10067;53.092;8.800;2024-03-02T04:59:52;23.37;;;17.03;;
19814;SDS011;10067;53.092;8.800;2024-03-02T05:02:19;24.33;;;16.80;;
19814;SDS011;10067;53.092;8.800;2024-03-02T05:04:45;23.33;;;16.37;;
19814;SDS011;10067;53.092;8.800;2024-03-02T05:07:13;24.33;;;15.90;;
19814;SDS011;10067;53.092;8.800;2024-03-02T05:09:40;22.20;;;16.53;;
19814;SDS011;10067;53.092;8.800;2024-03-02T05:12:07;22.17;;;15.33;;
19814;SDS011;10067;53.092;8.800;2024-03-02T05:15:01;23.57;;;16.73;;
19814;SDS011;10067;53.092;8.800;2024-03-02T05:17:28;23.85;;;16.85;;
19814;SDS011;10067;53.092;8.800;2024-03-02T05:19:54;22.97;;;16.20;;
19814;SDS011;10067;53.092;8.800;2024-03-02T05:22:20;22.63;;;15.53;;
19814;SDS011;10067;53.092;8.800;2024-03-02T05:24:47;21.30;;;15.63;;
19814;SDS011;10067;53.092;8.800;2024-03-02T05:27:13;22.33;;;16.43;;
19814;SDS011;10067;53.092;8.800;2024-03-02T05:29:40;20.70;;;15.83;;
19814;SDS011;10067;53.092;8.800;2024-03-02T05:32:08;21.47;;;15.93;;
19814;SDS011;10067;53.092;8.800;2024-03-02T05:34:34;23.07;;;16.67;;
19814;SDS011;10067;53.092;8.800;2024-03-02T05:37:01;21.60;;;16.03;;
19814;SDS011;10067;53.092;8.800;2024-03-02T05:39:28;23.00;;;17.17;;
19814;SDS011;10067;53.092;8.800;2024-03-02T05:41:54;24.13;;;16.47;;
19814;SDS011;10067;53.092;8.800;2024-03-02T05:44:21;27.07;;;16.43;;
19814;SDS011;10067;53.092;8.800;2024-03-02T05:46:47;22.27;;;16.83;;
19814;SDS011;10067;53.092;8.800;2024-03-02T05:49:15;22.50;;;16.63;;
19814;SDS011;10067;53.092;8.800;2024-03-02T05:51:41;21.33;;;16.00;;
19814;SDS011;10067;53.092;8.800;2024-03-02T05:54:08;20.80;;;16.37;;
19814;SDS011;10067;53.092;8.800;2024-03-02T05:56:34;20.83;;;16.13;;
19814;SDS011;10067;53.092;8.800;2024-03-02T05:59:01;22.43;;;16.80;;
19814;SDS011;10067;53.092;8.800;2024-03-02T06:01:37;21.43;;;16.40;;
19814;SDS011;10067;53.092;8.800;2024-03-02T06:04:04;23.80;;;16.97;;
19814;SDS011;10067;53.092;8.800;2024-03-02T06:06:31;20.55;;;16.33;;
19814;SDS011;10067;53.092;8.800;2024-03-02T06:08:59;24.10;;;17.77;;
19814;SDS011;10067;53.092;8.800;2024-03-02T06:11:25;23.87;;;17.50;;
19814;SDS011;10067;53.092;8.800;2024-03-02T06:13:51;23.87;;;18.80;;
19814;SDS011;10067;53.092;8.800;2024-03-02T06:16:18;26.57;;;18.47;;
19814;SDS011;10067;53.092;8.800;2024-03-02T06:18:44;26.50;;;18.30;;
19814;SDS011;10067;53.092;8.800;2024-03-02T06:21:11;24.90;;;17.70;;
19814;SDS011;10067;53.092;8.800;2024-03-02T06:23:38;25.77;;;18.80;;
19814;SDS011;10067;53.092;8.800;2024-03-02T06:26:06;25.07;;;18.20;;
19814;SDS011;10067;53.092;8.800;2024-03-02T06:28:32;24.63;;;18.10;;
19814;SDS011;10067;53.092;8.800;2024-03-02T06:31:00;25.20;;;18.70;;
19814;SDS011;10067;53.092;8.800;2024-03-02T06:33:27;25.80;;;17.67;;
19814;SDS011;10067;53.092;8.800;2024-03-02T06:35:53;24.93;;;17.93;;
19814;SDS011;10067;53.092;8.800;2024-03-02T06:38:20;26.77;;;19.60;;
19814;SDS011;10067;53.092;8.800;2024-03-02T06:40:47;26.40;;;18.77;;
19814;SDS011;10067;53.092;8.800;2024-03-02T06:43:14;27.50;;;19.43;;
19814;SDS011;10067;53.092;8.800;2024-03-02T06:45:40;26.40;;;17.90;;
19814;SDS011;10067;53.092;8.800;2024-03-02T06:48:07;26.97;;;18.93;;
19814;SDS011;10067;53.092;8.800;2024-03-02T06:50:33;25.07;;;17.73;;
19814;SDS011;10067;53.092;8.800;2024-03-02T06:52:59;27.20;;;18.27;;
19814;SDS011;10067;53.092;8.800;2024-03-02T06:55:26;27.33;;;19.13;;
19814;SDS011;10067;53.092;8.800;2024-03-02T06:57:53;26.67;;;19.20;;
19814;SDS011;10067;53.092;8.800;2024-03-02T07:00:20;28.13;;;18.20;;
19814;SDS011;10067;53.092;8.800;2024-03-02T07:02:46;29.10;;;19.63;;
19814;SDS011;10067;53.092;8.800;2024-03-02T07:05:13;25.03;;;18.97;;
19814;SDS011;10067;53.092;8.800;2024-03-02T07:07:39;31.97;;;19.80;;
19814;SDS011;10067;53.092;8.800;2024-03-02T07:10:06;31.00;;;20.23;;
19814;SDS011;10067;53.092;8.800;2024-03-02T07:12:33;28.00;;;19.57;;
19814;SDS011;10067;53.092;8.800;2024-03-02T07:15:01;27.50;;;19.07;;
19814;SDS011;10067;53.092;8.800;2024-03-02T07:17:55;26.80;;;18.63;;
19814;SDS011;10067;53.092;8.800;2024-03-02T07:20:21;26.17;;;19.10;;
19814;SDS011;10067;53.092;8.800;2024-03-02T07:22:47;28.90;;;19.00;;
19814;SDS011;10067;53.092;8.800;2024-03-02T07:25:14;28.03;;;19.10;;
19814;SDS011;10067;53.092;8.800;2024-03-02T07:27:40;26.00;;;18.67;;
19814;SDS011;10067;53.092;8.800;2024-03-02T07:30:09;28.60;;;19.60;;
19814;SDS011;10067;53.092;8.800;2024-03-02T07:32:36;28.37;;;20.13;;
19814;SDS011;10067;53.092;8.800;2024-03-02T07:35:03;26.00;;;18.97;;
19814;SDS011;10067;53.092;8.800;2024-03-02T07:37:29;27.33;;;19.43;;
19814;SDS011;10067;53.092;8.800;2024-03-02T07:39:56;30.17;;;20.03;;
19814;SDS011;10067;53.092;8.800;2024-03-02T07:42:22;27.40;;;19.80;;
19814;SDS011;10067;53.092;8.800;2024-03-02T07:44:49;27.70;;;19.53;;
19814;SDS011;10067;53.092;8.800;2024-03-02T07:47:16;29.40;;;19.00;;
19814;SDS011;10067;53.092;8.800;2024-03-02T07:49:44;29.47;;;19.63;;
19814;SDS011;10067;53.092;8.800;2024-03-02T07:52:10;29.47;;;19.80;;
19814;SDS011;10067;53.092;8.800;2024-03-02T07:54:36;28.23;;;20.13;;
19814;SDS011;10067;53.092;8.800;2024-03-02T07:57:03;29.43;;;19.33;;
19814;SDS011;10067;53.092;8.800;2024-03-02T07:59:29;28.93;;;19.87;;
19814;SDS011;10067;53.092;8.800;2024-03-02T08:01:56;29.35;;;19.38;;
19814;SDS011;10067;53.092;8.800;2024-03-02T08:04:24;27.15;;;19.58;;
19814;SDS011;10067;53.092;8.800;2024-03-02T08:06:50;26.65;;;19.15;;
19814;SDS011;10067;53.092;8.800;2024-03-02T08:09:17;26.80;;;19.13;;
19814;SDS011;10067;53.092;8.800;2024-03-02T08:11:44;28.43;;;20.07;;
19814;SDS011;10067;53.092;8.800;2024-03-02T08:14:10;32.20;;;19.55;;
19814;SDS011;10067;53.092;8.800;2024-03-02T08:16:36;29.70;;;20.52;;
19814;SDS011;10067;53.092;8.800;2024-03-02T08:19:03;30.80;;;20.13;;
19814;SDS011;10067;53.092;8.800;2024-03-02T08:21:30;31.83;;;20.52;;
19814;SDS011;10067;53.092;8.800;2024-03-02T08:24:00;29.77;;;20.40;;
19814;SDS011;10067;53.092;8.800;2024-03-02T08:26:26;29.27;;;20.20;;
19814;SDS011;10067;53.092;8.800;2024-03-02T08:28:54;28.92;;;19.52;;
19814;SDS011;10067;53.092;8.800;2024-03-02T08:31:20;27.70;;;20.02;;
19814;SDS011;10067;53.092;8.800;2024-03-02T08:33:46;27.47;;;19.63;;
19814;SDS011;10067;53.092;8.800;2024-03-02T08:36:13;27.63;;;18.93;;
19814;SDS011;10067;53.092;8.800;2024-03-02T08:38:42;29.45;;;20.05;;
19814;SDS011;10067;53.092;8.800;2024-03-02T08:41:09;32.25;;;21.23;;
19814;SDS011;10067;53.092;8.800;2024-03-02T08:43:38;28.80;;;20.55;;
19814;SDS011;10067;53.092;8.800;2024-03-02T08:46:05;29.33;;;20.27;;
19814;SDS011;10067;53.092;8.800;2024-03-02T08:48:31;31.02;;;19.08;;
19814;SDS011;10067;53.092;8.800;2024-03-02T08:50:57;28.45;;;20.75;;
19814;SDS011;10067;53.092;8.800;2024-03-02T08:53:24;30.38;;;19.98;;
19814;SDS011;10067;53.092;8.800;2024-03-02T08:55:52;32.10;;;20.35;;
19814;SDS011;10067;53.092;8.800;2024-03-02T08:58:20;30.60;;;20.27;;
19814;SDS011;10067;53.092;8.800;2024-03-02T09:00:46;29.80;;;19.75;;
19814;SDS011;10067;53.092;8.800;2024-03-02T09:03:13;30.15;;;19.65;;
19814;SDS011;10067;53.092;8.800;2024-03-02T09:05:40;29.50;;;20.45;;
19814;SDS011;10067;53.092;8.800;2024-03-02T09:08:08;27.00;;;18.33;;
19814;SDS011;10067;53.092;8.800;2024-03-02T09:10:34;28.55;;;17.70;;
19814;SDS011;10067;53.092;8.800;2024-03-02T09:13:02;27.40;;;18.75;;
19814;SDS011;10067;53.092;8.800;2024-03-02T09:15:28;28.42;;;18.80;;
19814;SDS011;10067;53.092;8.800;2024-03-02T09:17:54;24.17;;;17.95;;
19814;SDS011;10067;53.092;8.800;2024-03-02T09:20:21;27.83;;;17.45;;
19814;SDS011;10067;53.092;8.800;2024-03-02T09:22:48;25.17;;;17.73;;
19814;SDS011;10067;53.092;8.800;2024-03-02T09:25:14;25.77;;;17.67;;
19814;SDS011;10067;53.092;8.800;2024-03-02T09:27:41;23.98;;;17.50;;
19814;SDS011;10067;53.092;8.800;2024-03-02T09:30:09;23.60;;;16.42;;
19814;SDS011;10067;53.092;8.800;2024-03-02T09:32:36;25.13;;;17.58;;
19814;SDS011;10067;53.092;8.800;2024-03-02T09:35:02;25.65;;;17.35;;
19814;SDS011;10067;53.092;8.800;2024-03-02T09:37:29;24.05;;;15.98;;
19814;SDS011;10067;53.092;8.800;2024-03-02T09:39:55;22.08;;;15.57;;
19814;SDS011;10067;53.092;8.800;2024-03-02T09:42:22;25.10;;;16.40;;
19814;SDS011;10067;53.092;8.800;2024-03-02T09:44:48;24.38;;;16.23;;
19814;SDS011;10067;53.092;8.800;2024-03-02T09:47:16;21.20;;;14.93;;
19814;SDS011;10067;53.092;8.800;2024-03-02T09:49:43;22.05;;;15.15;;
19814;SDS011;10067;53.092;8.800;2024-03-02T09:52:09;19.85;;;14.43;;
19814;SDS011;10067;53.092;8.800;2024-03-02T09:54:36;21.75;;;15.48;;
19814;SDS011;10067;53.092;8.800;2024-03-02T09:57:02;19.90;;;14.57;;
19814;SDS011;10067;53.092;8.800;2024-03-02T09:59:29;22.15;;;15.10;;
19814;SDS011;10067;53.092;8.800;2024-03-02T10:01:56;20.13;;;13.65;;
19814;SDS011;10067;53.092;8.800;2024-03-02T10:04:24;21.40;;;15.40;;
19814;SDS011;10067;53.092;8.800;2024-03-02T10:06:51;18.48;;;13.85;;
19814;SDS011;10067;53.092;8.800;2024-03-02T10:09:26;19.88;;;14.35;;
19814;SDS011;10067;53.092;8.800;2024-03-02T10:11:52;20.70;;;14.25;;
19814;SDS011;10067;53.092;8.800;2024-03-02T10:14:19;20.52;;;13.43;;
19814;SDS011;10067;53.092;8.800;2024-03-02T10:16:46;18.30;;;13.27;;
19814;SDS011;10067;53.092;8.800;2024-03-02T10:19:16;18.02;;;13.32;;
19814;SDS011;10067;53.092;8.800;2024-03-02T10:21:45;18.55;;;13.27;;
19814;SDS011;10067;53.092;8.800;2024-03-02T10:24:12;18.63;;;12.52;;
19814;SDS011;10067;53.092;8.800;2024-03-02T10:26:38;18.67;;;12.27;;
19814;SDS011;10067;53.092;8.800;2024-03-02T10:29:05;20.05;;;12.65;;
19814;SDS011;10067;53.092;8.800;2024-03-02T10:31:31;16.15;;;12.48;;
19814;SDS011;10067;53.092;8.800;2024-03-02T10:33:58;15.90;;;12.15;;
19814;SDS011;10067;53.092;8.800;2024-03-02T10:36:25;16.33;;;11.70;;
19814;SDS011;10067;53.092;8.800;2024-03-02T10:38:53;17.48;;;11.85;;
19814;SDS011;10067;53.092;8.800;2024-03-02T10:41:21;16.08;;;11.98;;
19814;SDS011;10067;53.092;8.800;2024-03-02T10:43:49;15.23;;;11.25;;
19814;SDS011;10067;53.092;8.800;2024-03-02T10:46:17;16.80;;;11.30;;
19814;SDS011;10067;53.092;8.800;2024-03-02T10:48:45;13.98;;;11.10;;
19814;SDS011;10067;53.092;8.800;2024-03-02T10:51:12;17.02;;;11.82;;
19814;SDS011;10067;53.092;8.800;2024-03-02T10:53:39;15.13;;;9.98;;
19814;SDS011;10067;53.092;8.800;2024-03-02T10:56:07;13.32;;;10.05;;
19814;SDS011;10067;53.092;8.800;2024-03-02T10:58:35;13.95;;;10.77;;
19814;SDS011;10067;53.092;8.800;2024-03-02T11:01:03;12.85;;;9.85;;
19814;SDS011;10067;53.092;8.800;2024-03-02T11:03:30;13.98;;;10.40;;
19814;SDS011;10067;53.092;8.800;2024-03-02T11:05:57;12.32;;;9.10;;
19814;SDS011;10067;53.092;8.800;2024-03-02T11:08:24;13.13;;;9.10;;
19814;SDS011;10067;53.092;8.800;2024-03-02T11:10:54;13.15;;;9.63;;
19814;SDS011;10067;53.092;8.800;2024-03-02T11:13:27;14.68;;;9.43;;
19814;SDS011;10067;53.092;8.800;2024-03-02T11:15:55;11.48;;;7.88;;
19814;SDS011;10067;53.092;8.800;2024-03-02T11:18:23;11.65;;;8.20;;
19814;SDS011;10067;53.092;8.800;2024-03-02T11:20:50;12.02;;;8.98;;
19814;SDS011;10067;53.092;8.800;2024-03-02T11:23:16;10.52;;;8.25;;
19814;SDS011;10067;53.092;8.800;2024-03-02T11:25:43;10.20;;;8.18;;
19814;SDS011;10067;53.092;8.800;2024-03-02T11:28:09;12.88;;;8.35;;
19814;SDS011;10067;53.092;8.800;2024-03-02T11:30:55;10.68;;;8.27;;
19814;SDS011;10067;53.092;8.800;2024-03-02T11:33:22;12.70;;;8.25;;
19814;SDS011;10067;53.092;8.800;2024-03-02T11:35:48;10.68;;;7.43;;
19814;SDS011;10067;53.092;8.800;2024-03-02T11:38:14;11.25;;;7.95;;
19814;SDS011;10067;53.092;8.800;2024-03-02T11:40:42;11.95;;;8.27;;
19814;SDS011;10067;53.092;8.800;2024-03-02T11:43:08;10.75;;;7.40;;
19814;SDS011;10067;53.092;8.800;2024-03-02T11:45:35;10.52;;;7.95;;
19814;SDS011;10067;53.092;8.800;2024-03-02T11:48:06;11.40;;;8.00;;
19814;SDS011;10067;53.092;8.800;2024-03-02T11:50:33;11.55;;;8.07;;
19814;SDS011;10067;53.092;8.800;2024-03-02T11:53:00;11.93;;;7.97;;
19814;SDS011;10067;53.092;8.800;2024-03-02T11:55:29;11.82;;;8.88;;
19814;SDS011;10067;53.092;8.800;2024-03-02T11:57:56;11.52;;;9.00;;
19814;SDS011;10067;53.092;8.800;2024-03-02T12:00:23;11.00;;;8.15;;
19814;SDS011;10067;53.092;8.800;2024-03-02T12:02:59;12.80;;;8.27;;
19814;SDS011;10067;53.092;8.800;2024-03-02T12:05:27;13.05;;;8.77;;
19814;SDS011;10067;53.092;8.800;2024-03-02T12:07:55;9.00;;;7.50;;
19814;SDS011;10067;53.092;8.800;2024-03-02T12:10:22;11.00;;;8.88;;
19814;SDS011;10067;53.092;8.800;2024-03-02T12:12:54;12.75;;;8.82;;
19814;SDS011;10067;53.092;8.800;2024-03-02T12:15:22;11.23;;;8.07;;
19814;SDS011;10067;53.092;8.800;2024-03-02T12:17:48;10.80;;;8.45;;
19814;SDS011;10067;53.092;8.800;2024-03-02T12:20:18;11.00;;;7.65;;
19814;SDS011;10067;53.092;8.800;2024-03-02T12:22:46;11.57;;;8.18;;
19814;SDS011;10067;53.092;8.800;2024-03-02T12:25:12;10.73;;;7.57;;
19814;SDS011;10067;53.092;8.800;2024-03-02T12:27:39;9.93;;;7.15;;
19814;SDS011;10067;53.092;8.800;2024-03-02T12:30:06;11.10;;;8.15;;
19814;SDS011;10067;53.092;8.800;2024-03-02T12:32:35;11.45;;;7.95;;
19814;SDS011;10067;53.092;8.800;2024-03-02T12:35:04;8.02;;;6.43;;
19814;SDS011;10067;53.092;8.800;2024-03-02T12:37:30;9.13;;;7.13;;
19814;SDS011;10067;53.092;8.800;2024-03-02T12:39:58;9.68;;;6.72;;
19814;SDS011;10067;53.092;8.800;2024-03-02T12:42:24;11.15;;;7.15;;
19814;SDS011;10067;53.092;8.800;2024-03-02T12:44:51;9.32;;;7.18;;
19814;SDS011;10067;53.092;8.800;2024-03-02T12:47:19;8.57;;;6.95;;
19814;SDS011;10067;53.092;8.800;2024-03-02T12:49:45;9.75;;;7.22;;
19814;SDS011;10067;53.092;8.800;2024-03-02T12:52:12;10.35;;;7.18;;
19814;SDS011;10067;53.092;8.800;2024-03-02T12:54:38;10.52;;;7.70;;
19814;SDS011;10067;53.092;8.800;2024-03-02T12:57:06;13.02;;;7.20;;
19814;SDS011;10067;53.092;8.800;2024-03-02T12:59:33;9.40;;;7.00;;
19814;SDS011;10067;53.092;8.800;2024-03-02T13:01:59;8.82;;;7.30;;
19814;SDS011;10067;53.092;8.800;2024-03-02T13:04:27;10.38;;;6.90;;
19814;SDS011;10067;53.092;8.800;2024-03-02T13:06:54;8.60;;;6.72;;
19814;SDS011;10067;53.092;8.800;2024-03-02T13:09:23;11.02;;;6.88;;
19814;SDS011;10067;53.092;8.800;2024-03-02T13:11:49;12.95;;;6.72;;
19814;SDS011;10067;53.092;8.800;2024-03-02T13:14:17;9.38;;;7.25;;
19814;SDS011;10067;53.092;8.800;2024-03-02T13:16:44;10.15;;;6.72;;
19814;SDS011;10067;53.092;8.800;2024-03-02T13:19:12;9.35;;;6.70;;
19814;SDS011;10067;53.092;8.800;2024-03-02T13:21:38;9.25;;;6.95;;
19814;SDS011;10067;53.092;8.800;2024-03-02T13:24:05;10.73;;;7.78;;
19814;SDS011;10067;53.092;8.800;2024-03-02T13:26:32;9.63;;;7.40;;
19814;SDS011;10067;53.092;8.800;2024-03-02T13:28:58;11.63;;;7.63;;
19814;SDS011;10067;53.092;8.800;2024-03-02T13:31:26;10.48;;;7.70;;
19814;SDS011;10067;53.092;8.800;2024-03-02T13:33:52;9.10;;;7.43;;
19814;SDS011;10067;53.092;8.800;2024-03-02T13:36:19;9.00;;;7.20;;
19814;SDS011;10067;53.092;8.800;2024-03-02T13:38:45;9.38;;;7.50;;
19814;SDS011;10067;53.092;8.800;2024-03-02T13:41:11;11.48;;;6.80;;
19814;SDS011;10067;53.092;8.800;2024-03-02T13:43:38;13.40;;;8.05;;
19814;SDS011;10067;53.092;8.800;2024-03-02T13:46:05;9.52;;;7.80;;
19814;SDS011;10067;53.092;8.800;2024-03-02T13:48:33;11.48;;;7.80;;
19814;SDS011;10067;53.092;8.800;2024-03-02T13:50:59;9.60;;;7.53;;
19814;SDS011;10067;53.092;8.800;2024-03-02T13:53:25;9.13;;;7.07;;
19814;SDS011;10067;53.092;8.800;2024-03-02T13:55:53;9.15;;;6.95;;
19814;SDS011;10067;53.092;8.800;2024-03-02T13:58:20;11.00;;;7.35;;
19814;SDS011;10067;53.092;8.800;2024-03-02T14:00:47;9.68;;;7.55;;
19814;SDS011;10067;53.092;8.800;2024-03-02T14:03:13;10.40;;;7.07;;
19814;SDS011;10067;53.092;8.800;2024-03-02T14:05:41;8.95;;;6.78;;
19814;SDS011;10067;53.092;8.800;2024-03-02T14:08:07;11.07;;;6.95;;
19814;SDS011;10067;53.092;8.800;2024-03-02T14:10:33;8.35;;;6.45;;
19814;SDS011;10067;53.092;8.800;2024-03-02T14:13:00;8.32;;;6.30;;
19814;SDS011;10067;53.092;8.800;2024-03-02T14:15:27;7.93;;;6.55;;
19814;SDS011;10067;53.092;8.800;2024-03-02T14:17:55;9.73;;;7.43;;
19814;SDS011;10067;53.092;8.800;2024-03-02T14:20:21;9.40;;;6.85;;
19814;SDS011;10067;53.092;8.800;2024-03-02T14:22:50;8.82;;;6.57;;
19814;SDS011;10067;53.092;8.800;2024-03-02T14:25:16;8.30;;;6.15;;